Time;durP1;ratioP1;P1;durP2;ratioP2;P2;SDS_P1;SDS_P2;PMS_P1;PMS_P2;Temp;Humidity;BMP_temperature;BMP_pressure;BME280_temperature;BME280_humidity;BME280_pressure;Samples;Min_cycle;Max_cycle;Signal;HPM_P1;HPM_P2
2021/06/11 00:01:35;;;;;;;22.20;19.90;;;17.20;97.20;;;;;;5097126;28;20051;-66
2021/06/11 00:04:01;;;;;;;21.05;19.00;;;17.20;97.20;;;;;;5090524;28;20100;-66
2021/06/11 00:06:27;;;;;;;24.85;21.50;;;17.10;97.30;;;;;;5097490;28;20112;-66
2021/06/11 00:08:53;;;;;;;27.98;22.40;;;17.10;97.50;;;;;;5094280;28;20052;-66
2021/06/11 00:11:19;;;;;;;25.88;23.20;;;17.00;97.60;;;;;;5095393;28;20057;-66
2021/06/11 00:13:45;;;;;;;25.85;23.08;;;17.00;98.20;;;;;;5093774;28;20035;-66
2021/06/11 00:16:11;;;;;;;26.52;22.60;;;16.90;98.50;;;;;;5105460;28;20043;-66
2021/06/11 00:18:37;;;;;;;25.52;22.83;;;16.80;98.90;;;;;;5100483;28;20344;-66
2021/06/11 00:21:03;;;;;;;25.05;22.45;;;16.70;98.90;;;;;;5088402;28;20031;-66
2021/06/11 00:23:29;;;;;;;25.05;22.45;;;16.70;99.00;;;;;;5095446;28;20176;-66
2021/06/11 00:25:55;;;;;;;24.73;21.52;;;16.60;99.00;;;;;;5093776;28;20278;-66
2021/06/11 00:28:20;;;;;;;20.98;18.90;;;16.60;99.00;;;;;;5098590;28;20035;-66
2021/06/11 00:30:46;;;;;;;22.23;19.92;;;16.50;98.80;;;;;;5092335;28;20044;-66
2021/06/11 00:33:13;;;;;;;19.45;17.42;;;16.50;98.70;;;;;;5095100;28;20062;-66
2021/06/11 00:35:39;;;;;;;24.77;22.13;;;16.60;98.60;;;;;;5090833;28;20535;-66
2021/06/11 00:38:08;;;;;;;23.80;21.08;;;16.60;98.80;;;;;;5093553;28;20451;-66
2021/06/11 00:40:35;;;;;;;22.42;20.17;;;16.50;98.80;;;;;;5094167;28;20468;-66
2021/06/11 00:43:01;;;;;;;21.65;19.08;;;16.50;98.70;;;;;;5096839;28;20040;-66
2021/06/11 00:45:27;;;;;;;21.90;19.60;;;16.50;98.60;;;;;;5085595;28;20043;-66
2021/06/11 00:47:53;;;;;;;23.58;21.13;;;16.60;98.60;;;;;;5094013;28;20040;-66
2021/06/11 00:50:29;;;;;;;22.70;20.50;;;16.50;98.50;;;;;;5093659;28;20498;-66
2021/06/11 00:52:56;;;;;;;23.40;20.02;;;16.60;98.50;;;;;;5101368;28;20031;-66
2021/06/11 00:55:23;;;;;;;23.55;21.25;;;16.50;98.50;;;;;;5093319;28;20051;-66
2021/06/11 00:57:49;;;;;;;23.50;20.73;;;16.50;98.60;;;;;;5103232;28;20043;-66
2021/06/11 01:00:16;;;;;;;23.13;20.63;;;16.50;98.60;;;;;;5096565;28;20388;-66
2021/06/11 01:02:42;;;;;;;24.45;21.98;;;16.40;98.70;;;;;;5091870;28;20055;-65
2021/06/11 01:05:09;;;;;;;21.73;19.52;;;16.40;98.70;;;;;;5095209;28;20083;-66
2021/06/11 01:07:37;;;;;;;23.80;20.60;;;16.40;98.60;;;;;;5088098;28;20113;-66
2021/06/11 01:10:05;;;;;;;21.77;19.45;;;16.40;98.70;;;;;;5096520;28;20438;-66
2021/06/11 01:12:33;;;;;;;23.20;20.77;;;16.40;98.60;;;;;;5092754;28;20054;-66
2021/06/11 01:15:00;;;;;;;23.52;21.13;;;16.40;98.70;;;;;;5097298;28;20467;-66
2021/06/11 01:17:26;;;;;;;23.80;21.35;;;16.40;99.00;;;;;;5089115;28;20075;-66
2021/06/11 01:19:53;;;;;;;26.23;22.30;;;16.40;99.00;;;;;;5098065;28;20063;-66
2021/06/11 01:22:23;;;;;;;24.10;21.52;;;16.40;99.50;;;;;;5090699;28;20036;-66
2021/06/11 01:24:59;;;;;;;25.95;23.20;;;16.40;99.80;;;;;;5095690;28;20032;-66
2021/06/11 01:27:27;;;;;;;23.58;21.17;;;16.40;99.90;;;;;;5096964;28;20036;-66
2021/06/11 01:29:56;;;;;;;23.38;21.10;;;16.30;99.80;;;;;;5091380;28;20457;-66
2021/06/11 01:32:24;;;;;;;24.70;21.88;;;16.30;99.70;;;;;;5090087;28;20506;-66
2021/06/11 01:34:52;;;;;;;23.58;21.02;;;16.30;99.90;;;;;;5096164;28;20200;-66
2021/06/11 01:37:24;;;;;;;23.23;20.77;;;16.20;99.90;;;;;;5092044;28;21270;-66
2021/06/11 01:39:53;;;;;;;20.25;18.15;;;16.10;99.80;;;;;;5100162;28;20032;-65
2021/06/11 01:42:19;;;;;;;21.92;19.75;;;16.10;99.70;;;;;;5094289;28;20032;-65
2021/06/11 01:44:46;;;;;;;22.05;19.15;;;16.10;99.60;;;;;;5100430;28;20046;-66
2021/06/11 01:47:14;;;;;;;19.50;17.50;;;16.10;99.70;;;;;;5090026;28;20043;-66
2021/06/11 01:49:45;;;;;;;19.60;17.13;;;16.00;99.60;;;;;;5090233;28;20101;-66
2021/06/11 01:52:13;;;;;;;19.45;17.50;;;16.00;99.30;;;;;;5097551;28;20049;-66
2021/06/11 01:54:43;;;;;;;19.10;17.27;;;16.00;99.20;;;;;;5088405;28;20439;-66
2021/06/11 01:57:09;;;;;;;24.52;19.63;;;16.00;99.00;;;;;;5099033;28;20050;-66
2021/06/11 01:59:36;;;;;;;21.08;18.95;;;16.00;99.30;;;;;;5098286;28;20520;-66
2021/06/11 02:02:04;;;;;;;21.42;19.33;;;15.90;99.10;;;;;;5097924;28;20399;-66
2021/06/11 02:04:31;;;;;;;21.30;19.17;;;15.90;99.10;;;;;;5103126;28;20599;-66
2021/06/11 02:06:58;;;;;;;25.45;22.58;;;15.90;99.10;;;;;;5099199;27;20482;-66
2021/06/11 02:09:25;;;;;;;24.92;22.42;;;15.90;99.20;;;;;;5093376;28;20452;-66
2021/06/11 02:11:52;;;;;;;21.33;19.08;;;15.80;99.30;;;;;;5098678;28;20347;-66
2021/06/11 02:14:21;;;;;;;22.00;19.45;;;15.80;99.30;;;;;;5096016;28;20141;-66
2021/06/11 02:16:49;;;;;;;22.85;20.45;;;15.70;99.30;;;;;;5102532;28;20088;-66
2021/06/11 02:19:15;;;;;;;20.70;18.60;;;15.80;99.60;;;;;;5101157;28;20057;-66
2021/06/11 02:21:42;;;;;;;21.67;19.52;;;15.70;99.40;;;;;;5100841;27;20044;-66
2021/06/11 02:24:08;;;;;;;20.98;18.88;;;15.70;99.30;;;;;;5093006;27;20042;-66
2021/06/11 02:26:35;;;;;;;21.13;18.88;;;15.70;99.20;;;;;;5105207;28;20525;-66
2021/06/11 02:29:01;;;;;;;20.13;17.80;;;15.70;99.10;;;;;;5088531;28;20111;-66
2021/06/11 02:31:27;;;;;;;20.73;18.52;;;15.70;99.00;;;;;;5103147;28;20603;-66
2021/06/11 02:33:53;;;;;;;25.55;22.73;;;15.70;99.00;;;;;;5101002;28;20115;-66
2021/06/11 02:36:19;;;;;;;28.08;24.00;;;15.70;99.40;;;;;;5099097;28;20036;-66
2021/06/11 02:38:45;;;;;;;23.45;20.98;;;15.70;99.80;;;;;;5098078;28;20048;-66
2021/06/11 02:41:17;;;;;;;22.88;20.20;;;15.70;99.60;;;;;;5095214;28;20472;-66
2021/06/11 02:43:47;;;;;;;26.63;23.67;;;15.60;99.60;;;;;;5102368;28;20487;-66
2021/06/11 02:46:24;;;;;;;27.63;23.83;;;15.60;99.90;;;;;;5099503;28;20040;-66
2021/06/11 02:49:04;;;;;;;28.95;23.38;;;15.70;99.90;;;;;;5097850;28;20101;-66
2021/06/11 02:51:49;;;;;;;24.25;21.65;;;15.60;99.90;;;;;;5094107;27;20035;-66
2021/06/11 02:54:27;;;;;;;26.50;22.65;;;15.60;99.90;;;;;;5097914;28;20027;-65
2021/06/11 02:56:58;;;;;;;27.33;23.50;;;15.50;99.90;;;;;;5091645;28;20454;-65
2021/06/11 02:59:27;;;;;;;30.70;25.15;;;15.50;99.90;;;;;;5096389;28;20028;-65
2021/06/11 03:02:02;;;;;;;27.52;24.38;;;15.50;99.90;;;;;;5093679;28;20040;-65
2021/06/11 03:04:29;;;;;;;23.70;20.55;;;15.50;99.90;;;;;;5094068;28;20043;-65
2021/06/11 03:06:56;;;;;;;23.45;21.05;;;15.50;99.90;;;;;;5093512;27;20044;-65
2021/06/11 03:09:25;;;;;;;22.08;19.77;;;15.40;99.90;;;;;;5099117;28;20043;-65
2021/06/11 03:11:55;;;;;;;22.25;19.83;;;15.40;99.90;;;;;;5094277;28;20475;-65
2021/06/11 03:14:21;;;;;;;22.30;19.95;;;15.40;99.90;;;;;;5098280;28;20470;-65
2021/06/11 03:16:55;;;;;;;24.95;22.33;;;15.40;99.90;;;;;;5091231;28;20063;-65
2021/06/11 03:19:24;;;;;;;25.00;21.20;;;15.30;99.90;;;;;;5102718;28;20510;-65
2021/06/11 03:21:58;;;;;;;28.48;25.08;;;15.30;99.90;;;;;;5089766;28;20047;-66
2021/06/11 03:24:36;;;;;;;25.05;22.33;;;15.30;99.90;;;;;;5099970;27;20507;-66
2021/06/11 03:27:07;;;;;;;23.88;21.15;;;15.30;99.90;;;;;;5097601;28;20043;-66
2021/06/11 03:29:36;;;;;;;25.25;21.67;;;15.30;99.90;;;;;;5100443;27;20132;-66
2021/06/11 03:32:07;;;;;;;23.67;21.25;;;15.30;99.90;;;;;;5087928;28;20040;-66
2021/06/11 03:34:37;;;;;;;23.10;20.10;;;15.30;99.90;;;;;;5104319;28;20465;-66
2021/06/11 03:37:13;;;;;;;22.40;19.95;;;15.30;99.90;;;;;;5095760;27;20039;-66
2021/06/11 03:39:48;;;;;;;22.70;20.20;;;15.30;99.90;;;;;;5101458;27;20064;-66
2021/06/11 03:42:15;;;;;;;19.23;17.33;;;15.40;99.90;;;;;;5091278;27;20043;-66
2021/06/11 03:44:44;;;;;;;22.55;20.00;;;15.30;99.90;;;;;;5099478;27;20055;-66
2021/06/11 03:47:13;;;;;;;24.23;18.65;;;15.30;99.90;;;;;;5089548;28;20100;-66
2021/06/11 03:49:41;;;;;;;19.33;17.42;;;15.30;99.90;;;;;;5102619;27;20043;-66
2021/06/11 03:52:07;;;;;;;18.30;16.40;;;15.40;99.90;;;;;;5090482;28;20044;-66
2021/06/11 03:54:45;;;;;;;21.00;18.90;;;15.30;99.90;;;;;;5100246;28;20069;-66
2021/06/11 03:57:12;;;;;;;21.38;19.17;;;15.40;99.90;;;;;;5099970;27;20044;-66
2021/06/11 03:59:40;;;;;;;18.02;16.23;;;15.40;99.90;;;;;;5090700;28;20561;-65
2021/06/11 04:02:06;;;;;;;18.17;16.38;;;15.40;99.90;;;;;;5096317;28;20439;-65
2021/06/11 04:04:33;;;;;;;19.25;17.38;;;15.40;99.90;;;;;;5091694;28;20475;-65
2021/06/11 04:07:10;;;;;;;24.58;21.95;;;15.50;99.90;;;;;;5095121;28;20031;-65
2021/06/11 04:09:48;;;;;;;24.15;21.55;;;15.50;99.90;;;;;;5097791;28;20380;-65
2021/06/11 04:12:26;;;;;;;29.70;24.88;;;15.60;99.90;;;;;;5099892;28;20465;-65
2021/06/11 04:14:54;;;;;;;27.00;23.00;;;15.60;99.90;;;;;;5095832;28;20122;-65
2021/06/11 04:17:23;;;;;;;25.63;22.92;;;15.60;99.90;;;;;;5104664;28;20394;-65
2021/06/11 04:19:54;;;;;;;27.17;24.27;;;15.60;99.90;;;;;;5091630;28;20035;-65
2021/06/11 04:22:24;;;;;;;25.08;22.38;;;15.70;99.90;;;;;;5108133;27;20108;-65
2021/06/11 04:24:52;;;;;;;28.33;23.50;;;15.80;99.90;;;;;;5092981;28;20047;-65
2021/06/11 04:27:19;;;;;;;32.83;27.33;;;15.80;99.90;;;;;;5102292;28;20043;-65
2021/06/11 04:29:48;;;;;;;29.27;23.90;;;15.90;99.90;;;;;;5094922;27;20464;-65
2021/06/11 04:32:15;;;;;;;28.13;24.58;;;16.00;99.90;;;;;;5098665;28;20507;-65
2021/06/11 04:34:41;;;;;;;28.75;25.17;;;16.10;99.90;;;;;;5089234;28;20539;-65
2021/06/11 04:37:08;;;;;;;31.27;26.55;;;16.20;99.90;;;;;;5097673;27;20187;-65
2021/06/11 04:39:34;;;;;;;29.15;26.02;;;16.30;99.90;;;;;;5099514;27;20177;-65
2021/06/11 04:41:59;;;;;;;29.73;26.40;;;16.40;99.90;;;;;;5098277;28;20543;-65
2021/06/11 04:44:30;;;;;;;31.08;27.67;;;16.50;99.90;;;;;;5090176;28;20460;-65
2021/06/11 04:46:56;;;;;;;32.65;27.23;;;16.60;99.90;;;;;;5090926;28;20082;-65
2021/06/11 04:49:21;;;;;;;30.08;26.83;;;16.80;99.90;;;;;;5090667;28;20411;-65
2021/06/11 04:51:47;;;;;;;28.67;25.45;;;16.90;99.90;;;;;;5100193;28;20552;-65
2021/06/11 04:54:16;;;;;;;27.15;24.30;;;17.00;99.90;;;;;;5096840;28;20043;-65
2021/06/11 04:56:42;;;;;;;25.65;22.95;;;17.20;99.90;;;;;;5095265;28;20505;-66
2021/06/11 04:59:08;;;;;;;24.92;22.33;;;17.40;99.90;;;;;;5100856;28;20044;-66
2021/06/11 05:01:34;;;;;;;23.80;21.48;;;17.80;99.90;;;;;;5089157;28;20047;-66
2021/06/11 05:04:00;;;;;;;22.70;19.38;;;18.30;99.90;;;;;;5097279;28;20043;-66
2021/06/11 05:06:28;;;;;;;22.88;20.48;;;18.80;99.40;;;;;;5098623;28;20047;-66
2021/06/11 05:08:54;;;;;;;23.80;19.98;;;19.00;98.50;;;;;;5102594;28;20056;-66
2021/06/11 05:11:20;;;;;;;21.88;19.67;;;19.00;98.10;;;;;;5088382;28;20040;-66
2021/06/11 05:13:47;;;;;;;23.45;21.02;;;19.10;98.10;;;;;;5103875;28;20047;-66
2021/06/11 05:16:13;;;;;;;22.65;20.25;;;19.10;97.90;;;;;;5095795;28;20708;-66
2021/06/11 05:18:39;;;;;;;23.75;21.27;;;19.00;97.70;;;;;;5095172;28;20486;-66
2021/06/11 05:21:05;;;;;;;25.40;22.65;;;19.00;98.00;;;;;;5091942;28;20042;-66
2021/06/11 05:23:31;;;;;;;24.50;21.83;;;18.80;98.10;;;;;;5099338;28;20533;-66
2021/06/11 05:25:59;;;;;;;25.52;22.75;;;18.80;98.30;;;;;;5090040;28;20040;-66
2021/06/11 05:28:25;;;;;;;28.65;25.58;;;18.80;98.50;;;;;;5099998;28;20050;-66
2021/06/11 05:30:56;;;;;;;30.90;26.55;;;18.80;98.70;;;;;;5105571;28;20055;-66
2021/06/11 05:33:24;;;;;;;29.35;26.17;;;18.90;99.00;;;;;;5101959;28;20046;-65
2021/06/11 05:35:54;;;;;;;28.77;24.98;;;18.90;98.60;;;;;;5101661;28;20111;-66
2021/06/11 05:38:20;;;;;;;29.63;26.13;;;19.00;98.60;;;;;;5095733;28;20048;-66
2021/06/11 05:40:55;;;;;;;30.13;26.80;;;19.10;98.30;;;;;;5106751;28;20085;-66
2021/06/11 05:43:23;;;;;;;28.58;25.45;;;19.20;98.20;;;;;;5098342;28;20048;-66
2021/06/11 05:46:08;;;;;;;30.13;24.83;;;19.20;97.90;;;;;;5093352;28;20123;-66
2021/06/11 05:48:41;;;;;;;26.73;23.83;;;19.40;97.90;;;;;;5102133;28;20742;-66
2021/06/11 05:51:07;;;;;;;29.02;25.92;;;19.50;97.60;;;;;;5105620;28;20743;-67
2021/06/11 05:53:42;;;;;;;28.58;24.05;;;19.50;97.20;;;;;;5098745;28;20114;-67
2021/06/11 05:56:08;;;;;;;23.63;21.15;;;19.60;97.20;;;;;;5108874;28;20044;-67
2021/06/11 05:58:35;;;;;;;23.45;20.45;;;19.70;97.00;;;;;;5102062;28;20130;-68
2021/06/11 06:01:16;;;;;;;23.20;20.75;;;19.70;96.40;;;;;;5106020;28;20047;-68
2021/06/11 06:03:42;;;;;;;21.17;18.50;;;19.80;96.50;;;;;;5100507;28;20483;-68
2021/06/11 06:06:14;;;;;;;20.55;18.35;;;19.90;96.50;;;;;;5090197;28;20044;-68
2021/06/11 06:08:46;;;;;;;20.50;18.17;;;20.10;96.40;;;;;;5102335;28;20039;-68
2021/06/11 06:11:14;;;;;;;18.38;16.48;;;20.20;95.90;;;;;;5105134;28;20038;-68
2021/06/11 06:13:41;;;;;;;20.02;16.65;;;20.20;95.80;;;;;;5093165;28;20157;-68
2021/06/11 06:16:14;;;;;;;19.23;16.75;;;20.30;95.50;;;;;;5105768;28;20067;-68
2021/06/11 06:18:40;;;;;;;17.83;16.02;;;20.40;95.30;;;;;;5090970;28;20047;-68
2021/06/11 06:21:06;;;;;;;17.73;15.80;;;20.40;95.20;;;;;;5099053;27;20095;-68
2021/06/11 06:23:33;;;;;;;14.77;13.18;;;20.60;95.00;;;;;;5096563;28;20040;-68
2021/06/11 06:25:59;;;;;;;16.17;14.48;;;20.60;94.30;;;;;;5103218;27;20067;-68
2021/06/11 06:28:25;;;;;;;14.43;12.02;;;20.70;94.10;;;;;;5097351;28;20070;-68
2021/06/11 06:30:56;;;;;;;14.48;12.95;;;20.80;94.40;;;;;;5096482;28;20036;-68
2021/06/11 06:33:42;;;;;;;15.48;12.55;;;20.90;94.00;;;;;;5087752;28;20093;-68
2021/06/11 06:36:09;;;;;;;13.57;12.27;;;20.90;93.90;;;;;;5106513;27;20043;-68
2021/06/11 06:38:36;;;;;;;15.60;13.25;;;21.10;93.50;;;;;;5102356;27;20060;-68
2021/06/11 06:41:04;;;;;;;15.38;13.55;;;21.10;92.90;;;;;;5104073;28;20553;-68
2021/06/11 06:43:32;;;;;;;16.42;14.70;;;21.20;92.90;;;;;;5099518;27;20051;-68
2021/06/11 06:45:58;;;;;;;15.55;13.95;;;21.20;92.90;;;;;;5101422;27;20089;-68
2021/06/11 06:48:24;;;;;;;16.00;14.32;;;21.20;92.50;;;;;;5095430;28;20044;-68
2021/06/11 06:50:51;;;;;;;18.73;15.32;;;21.20;92.40;;;;;;5095727;27;20080;-68
2021/06/11 06:53:18;;;;;;;17.17;15.35;;;21.10;91.80;;;;;;5097575;28;20105;-68
2021/06/11 06:55:44;;;;;;;18.33;15.80;;;21.10;91.90;;;;;;5099030;27;20416;-68
2021/06/11 06:58:11;;;;;;;17.33;14.95;;;21.20;92.30;;;;;;5103204;27;20044;-70
2021/06/11 07:00:36;;;;;;;18.05;15.25;;;21.30;92.30;;;;;;5090030;28;20444;-70
2021/06/11 07:03:03;;;;;;;15.80;14.15;;;21.50;92.00;;;;;;5103219;27;20047;-70
2021/06/11 07:05:30;;;;;;;15.40;13.82;;;21.60;92.20;;;;;;5091536;28;20054;-70
2021/06/11 07:08:08;;;;;;;16.05;14.10;;;21.70;91.80;;;;;;5096958;27;20035;-70
2021/06/11 07:10:34;;;;;;;15.40;13.80;;;21.70;91.30;;;;;;5097501;28;20036;-72
2021/06/11 07:13:01;;;;;;;17.35;14.23;;;21.70;91.60;;;;;;5098172;28;20039;-70
2021/06/11 07:15:29;;;;;;;16.45;14.70;;;21.80;91.60;;;;;;5092015;28;20202;-71
2021/06/11 07:17:57;;;;;;;17.38;14.95;;;21.90;91.50;;;;;;5092650;28;20067;-71
2021/06/11 07:20:24;;;;;;;16.50;14.77;;;21.90;92.00;;;;;;5099918;27;20039;-72
2021/06/11 07:22:51;;;;;;;18.92;15.55;;;21.90;91.00;;;;;;5103891;28;20483;-72
2021/06/11 07:25:18;;;;;;;17.42;15.63;;;22.00;91.50;;;;;;5105313;28;20042;-71
2021/06/11 07:27:44;;;;;;;16.40;14.52;;;22.10;91.50;;;;;;5094543;27;20048;-71
2021/06/11 07:30:11;;;;;;;17.25;15.40;;;22.30;91.20;;;;;;5078962;28;20460;-69
2021/06/11 07:32:40;;;;;;;14.88;13.40;;;22.40;90.60;;;;;;5088021;28;20427;-68
2021/06/11 07:35:07;;;;;;;15.10;13.52;;;22.40;90.70;;;;;;5097738;28;20044;-68
2021/06/11 07:37:42;;;;;;;16.38;14.05;;;22.50;90.60;;;;;;5100921;27;20039;-70
2021/06/11 07:40:10;;;;;;;16.42;14.82;;;22.60;90.00;;;;;;5098061;28;20032;-70
2021/06/11 07:42:36;;;;;;;15.07;13.20;;;22.60;89.80;;;;;;5093292;28;20061;-70
2021/06/11 07:45:06;;;;;;;15.20;13.60;;;22.60;90.20;;;;;;5094480;28;20104;-70
2021/06/11 07:47:33;;;;;;;15.15;12.90;;;22.60;90.60;;;;;;5088072;28;20087;-70
2021/06/11 07:50:14;;;;;;;15.15;13.07;;;22.80;90.70;;;;;;5098559;28;20050;-70
2021/06/11 07:52:48;;;;;;;13.90;11.82;;;22.90;91.20;;;;;;5090069;28;20059;-70
2021/06/11 07:55:15;;;;;;;13.77;11.88;;;23.10;91.00;;;;;;5103892;27;20548;-70
2021/06/11 07:58:02;;;;;;;14.73;13.23;;;23.20;90.40;;;;;;5072389;28;20039;-70
2021/06/11 08:00:30;;;;;;;13.35;11.63;;;23.40;90.40;;;;;;5098761;28;20052;-70
2021/06/11 08:03:16;;;;;;;14.50;13.10;;;23.70;89.70;;;;;;5080588;28;20048;-72
2021/06/11 08:06:02;;;;;;;14.57;11.93;;;23.80;87.00;;;;;;5094331;28;20143;-71
2021/06/11 08:08:30;;;;;;;13.27;11.88;;;23.90;87.30;;;;;;5085855;28;20068;-72
2021/06/11 08:10:56;;;;;;;14.25;12.43;;;23.90;86.40;;;;;;5096898;27;20090;-71
2021/06/11 08:13:22;;;;;;;12.65;11.35;;;24.00;85.40;;;;;;5095826;28;20086;-72
2021/06/11 08:15:49;;;;;;;12.13;10.88;;;24.00;85.90;;;;;;5093530;28;20043;-69
2021/06/11 08:18:16;;;;;;;14.70;11.73;;;24.00;86.00;;;;;;5095653;28;20498;-71
2021/06/11 08:20:42;;;;;;;12.50;11.20;;;24.00;86.40;;;;;;5101871;28;20081;-70
2021/06/11 08:23:10;;;;;;;12.60;11.27;;;24.00;86.10;;;;;;5091805;28;20061;-71
2021/06/11 08:25:39;;;;;;;14.40;12.80;;;24.00;86.00;;;;;;5093623;28;20038;-71
2021/06/11 08:28:25;;;;;;;13.82;11.60;;;24.10;86.90;;;;;;5077990;28;20084;-68
2021/06/11 08:30:53;;;;;;;13.27;11.93;;;24.20;86.20;;;;;;5104165;28;20063;-69
2021/06/11 08:33:19;;;;;;;12.10;10.75;;;24.30;86.10;;;;;;5063856;28;20336;-68
2021/06/11 08:35:46;;;;;;;11.75;10.55;;;24.50;85.40;;;;;;5102590;27;20075;-69
2021/06/11 08:38:12;;;;;;;12.20;10.95;;;24.70;84.80;;;;;;5090065;28;20415;-68
2021/06/11 08:40:41;;;;;;;14.80;12.23;;;24.80;84.20;;;;;;5096425;28;20064;-68
2021/06/11 08:43:09;;;;;;;14.27;12.68;;;24.80;83.20;;;;;;5096842;28;20043;-68
2021/06/11 08:45:36;;;;;;;15.32;12.80;;;24.70;85.70;;;;;;5090698;27;20052;-73
2021/06/11 08:48:07;;;;;;;12.80;11.50;;;24.80;84.00;;;;;;5095113;28;20067;-74
2021/06/11 08:50:34;;;;;;;12.77;10.68;;;24.80;83.90;;;;;;5094995;28;20475;-71
2021/06/11 08:53:05;;;;;;;12.35;11.13;;;24.90;85.80;;;;;;5088150;28;20379;-74
2021/06/11 08:55:33;;;;;;;12.88;11.05;;;25.30;83.50;;;;;;5088049;28;20039;-68
2021/06/11 08:58:06;;;;;;;12.38;9.88;;;25.50;80.40;;;;;;5105664;28;20039;-69
2021/06/11 09:00:39;;;;;;;11.57;9.13;;;25.50;79.30;;;;;;5094113;28;20036;-70
2021/06/11 09:03:34;;;;;;;9.65;8.65;;;25.40;78.30;;;;;;5102065;28;20036;-69
2021/06/11 09:06:00;;;;;;;8.60;7.70;;;25.50;78.20;;;;;;5091880;28;20574;-71
2021/06/11 09:08:35;;;;;;;8.55;7.65;;;25.40;77.50;;;;;;5106368;28;20043;-69
2021/06/11 09:11:13;;;;;;;10.40;8.18;;;25.40;77.10;;;;;;5092008;28;20501;-68
2021/06/11 09:13:42;;;;;;;8.43;6.88;;;25.30;76.90;;;;;;5098898;28;20044;-68
2021/06/11 09:16:19;;;;;;;9.23;8.10;;;25.10;77.60;;;;;;5091538;28;20452;-68
2021/06/11 09:18:49;;;;;;;9.30;6.90;;;25.00;78.20;;;;;;5106324;28;20392;-69
2021/06/11 09:21:24;;;;;;;8.38;7.50;;;25.00;77.90;;;;;;5090057;28;20043;-70
2021/06/11 09:27:08;;;;;;;;;;;25.00;74.50;;;;;;5096052;28;20136;-69
2021/06/11 09:29:36;;;;;;;9.00;8.13;;;24.90;77.90;;;;;;5096646;28;20034;-69
2021/06/11 09:32:23;;;;;;;8.43;7.63;;;24.90;78.10;;;;;;5097627;28;20204;-69
2021/06/11 09:35:03;;;;;;;8.93;8.13;;;24.80;78.90;;;;;;5096079;28;20044;-69
2021/06/11 09:37:37;;;;;;;8.32;7.38;;;24.80;79.70;;;;;;5090164;28;20467;-69
2021/06/11 09:40:13;;;;;;;10.65;9.65;;;24.80;79.60;;;;;;5098002;28;20048;-69
2021/06/11 09:42:47;;;;;;;12.35;9.70;;;25.00;79.20;;;;;;5092786;28;20051;-67
2021/06/11 09:45:16;;;;;;;11.93;10.75;;;25.40;77.00;;;;;;5103104;28;20036;-67
2021/06/11 09:47:51;;;;;;;12.13;11.02;;;25.30;76.90;;;;;;5096359;28;20048;-66
2021/06/11 09:50:28;;;;;;;12.80;11.60;;;25.10;78.40;;;;;;5094879;28;20454;-67
2021/06/11 09:52:59;;;;;;;10.90;9.70;;;25.20;78.90;;;;;;5091788;28;20523;-68
2021/06/11 09:55:35;;;;;;;10.02;8.50;;;25.40;79.90;;;;;;5098056;28;20570;-67
2021/06/11 09:58:23;;;;;;;13.43;12.13;;;25.70;75.00;;;;;;5096612;28;20039;-67
2021/06/11 10:01:07;;;;;;;12.40;11.15;;;26.00;76.00;;;;;;5104275;28;20051;-69
2021/06/11 10:03:41;;;;;;;10.40;9.40;;;26.20;74.50;;;;;;5090102;28;20067;-66
2021/06/11 10:06:08;;;;;;;10.32;9.07;;;26.30;71.60;;;;;;5098770;28;20063;-67
2021/06/11 10:08:36;;;;;;;8.77;7.88;;;26.10;73.80;;;;;;5091591;28;20044;-67
2021/06/11 10:11:04;;;;;;;9.95;8.20;;;26.20;74.10;;;;;;5097587;28;20040;-67
2021/06/11 10:13:31;;;;;;;8.68;7.22;;;26.50;70.80;;;;;;5098515;28;20044;-67
2021/06/11 10:16:01;;;;;;;6.63;5.85;;;26.80;70.20;;;;;;5093424;28;20583;-67
2021/06/11 10:18:27;;;;;;;8.52;7.65;;;26.90;70.30;;;;;;5098936;27;20086;-67
2021/06/11 10:20:53;;;;;;;10.23;8.63;;;27.10;68.70;;;;;;5099148;28;20456;-67
2021/06/11 10:23:21;;;;;;;9.57;8.43;;;27.00;69.20;;;;;;5098092;27;20036;-68
2021/06/11 10:25:54;;;;;;;7.78;6.97;;;27.20;69.00;;;;;;5100850;28;20029;-67
2021/06/11 10:28:29;;;;;;;9.23;8.02;;;27.40;66.40;;;;;;5099840;27;20085;-67
2021/06/11 10:31:04;;;;;;;9.63;8.73;;;27.70;65.00;;;;;;5096761;28;20039;-68
2021/06/11 10:33:46;;;;;;;9.65;7.40;;;28.00;65.90;;;;;;5100389;27;20176;-68
2021/06/11 10:36:27;;;;;;;9.73;8.63;;;28.20;64.90;;;;;;5100192;28;20048;-68
2021/06/11 10:38:54;;;;;;;13.85;12.45;;;28.10;58.60;;;;;;5099528;28;20043;-68
2021/06/11 10:41:20;;;;;;;11.93;10.57;;;27.70;62.80;;;;;;5104196;28;20035;-68
2021/06/11 10:43:46;;;;;;;11.32;10.23;;;27.40;62.80;;;;;;5092196;27;20056;-68
2021/06/11 10:46:22;;;;;;;14.93;13.40;;;27.30;65.50;;;;;;5101978;27;20118;-68
2021/06/11 10:48:57;;;;;;;10.95;9.88;;;27.30;65.70;;;;;;5098562;28;20042;-68
2021/06/11 10:51:40;;;;;;;11.32;10.18;;;27.30;64.20;;;;;;5105555;28;20497;-67
2021/06/11 10:54:24;;;;;;;10.45;8.10;;;27.40;62.50;;;;;;5092607;28;20081;-69
2021/06/11 10:56:59;;;;;;;9.02;8.13;;;27.60;65.10;;;;;;5105654;27;20036;-69
2021/06/11 10:59:45;;;;;;;8.05;7.25;;;28.00;63.20;;;;;;5094175;28;20086;-69
2021/06/11 11:02:12;;;;;;;5.03;4.50;;;28.20;58.90;;;;;;5097851;28;20056;-69
2021/06/11 11:04:44;;;;;;;8.40;6.93;;;28.20;60.90;;;;;;5095030;28;20487;-69
2021/06/11 11:07:27;;;;;;;7.95;7.15;;;28.20;61.30;;;;;;5094597;28;20480;-69
2021/06/11 11:09:58;;;;;;;8.02;7.20;;;28.40;61.30;;;;;;5100182;27;20171;-69
2021/06/11 11:12:29;;;;;;;9.40;8.40;;;28.80;60.80;;;;;;5095939;28;20071;-69
2021/06/11 11:14:56;;;;;;;7.13;5.22;;;28.90;59.30;;;;;;5091136;28;20036;-69
2021/06/11 11:17:22;;;;;;;5.13;4.63;;;28.60;58.60;;;;;;5096869;28;20593;-69
2021/06/11 11:20:02;;;;;;;6.88;6.25;;;28.80;59.40;;;;;;5090940;28;20032;-69
2021/06/11 11:22:31;;;;;;;8.57;6.78;;;29.10;59.50;;;;;;5101289;27;20094;-68
2021/06/11 11:25:06;;;;;;;7.53;6.60;;;29.20;57.00;;;;;;5090742;28;20534;-69
2021/06/11 11:27:33;;;;;;;7.70;7.00;;;29.20;55.60;;;;;;5093266;28;20027;-71
2021/06/11 11:29:59;;;;;;;8.80;7.90;;;29.10;58.20;;;;;;5096091;27;20648;-71
2021/06/11 11:32:27;;;;;;;9.63;8.63;;;29.10;57.70;;;;;;5100312;27;20393;-71
2021/06/11 11:34:53;;;;;;;11.30;7.53;;;28.80;57.70;;;;;;5099837;28;20217;-71
2021/06/11 11:37:19;;;;;;;6.75;5.43;;;28.30;58.00;;;;;;5088385;28;20047;-71
2021/06/11 11:39:46;;;;;;;5.72;4.10;;;28.20;58.90;;;;;;5102244;28;20039;-71
2021/06/11 11:42:12;;;;;;;6.82;6.13;;;28.00;58.40;;;;;;5098854;28;20155;-71
2021/06/11 11:44:39;;;;;;;7.63;6.28;;;27.60;59.70;;;;;;5106342;28;20028;-71
2021/06/11 11:47:05;;;;;;;6.40;5.28;;;27.30;60.30;;;;;;5092760;28;20036;-71
2021/06/11 11:49:31;;;;;;;6.82;6.00;;;27.50;61.90;;;;;;5096108;28;20082;-71
2021/06/11 11:51:57;;;;;;;10.52;8.10;;;27.90;60.60;;;;;;5075923;28;20071;-71
2021/06/11 11:54:23;;;;;;;9.80;8.35;;;28.40;60.70;;;;;;5094606;27;20089;-71
2021/06/11 11:56:49;;;;;;;8.63;7.65;;;28.60;58.50;;;;;;5091519;27;20096;-71
2021/06/11 11:59:15;;;;;;;9.27;8.38;;;28.70;58.70;;;;;;5097605;28;20053;-72
2021/06/11 12:01:43;;;;;;;11.80;10.70;;;28.90;59.60;;;;;;5086966;28;20074;-71
2021/06/11 12:04:09;;;;;;;14.27;9.95;;;28.70;58.30;;;;;;5096260;28;20079;-71
2021/06/11 12:06:35;;;;;;;10.82;9.55;;;28.20;58.20;;;;;;5093432;28;20471;-71
2021/06/11 12:09:03;;;;;;;9.45;8.38;;;27.70;60.20;;;;;;5096829;28;20044;-71
2021/06/11 12:11:31;;;;;;;7.50;6.68;;;27.20;60.30;;;;;;5090439;27;20354;-71
2021/06/11 12:14:03;;;;;;;9.32;8.40;;;27.10;62.40;;;;;;5096776;28;20395;-71
2021/06/11 12:16:29;;;;;;;14.00;10.88;;;27.20;62.50;;;;;;5096352;28;20047;-69
2021/06/11 12:18:55;;;;;;;14.30;11.95;;;27.20;63.70;;;;;;5099249;28;20035;-70
2021/06/11 12:21:21;;;;;;;14.77;12.18;;;27.10;63.20;;;;;;5093636;28;20051;-71
2021/06/11 12:23:48;;;;;;;14.57;13.13;;;27.40;64.10;;;;;;5092744;28;20052;-71
2021/06/11 12:26:14;;;;;;;14.25;12.85;;;27.90;64.80;;;;;;5103906;28;20036;-71
2021/06/11 12:28:40;;;;;;;11.82;10.63;;;28.30;63.30;;;;;;5102613;28;20042;-71
2021/06/11 12:31:08;;;;;;;11.38;10.20;;;28.80;61.50;;;;;;5095111;28;20553;-71
2021/06/11 12:33:34;;;;;;;9.90;9.00;;;29.00;58.70;;;;;;5091319;28;20040;-69
2021/06/11 12:36:03;;;;;;;10.43;9.52;;;29.10;59.50;;;;;;5098115;28;20045;-69
2021/06/11 12:38:29;;;;;;;9.52;8.63;;;29.20;59.10;;;;;;5092055;28;20400;-68
2021/06/11 12:40:57;;;;;;;8.40;6.18;;;29.40;58.90;;;;;;5095770;27;20062;-68
2021/06/11 12:46:10;;;;;;;9.52;8.73;;;29.60;57.50;;;;;;5105386;28;20047;-69
2021/06/11 12:48:36;;;;;;;12.10;10.80;;;29.40;57.20;;;;;;5088481;28;20052;-72